Flight Track Log - Related Links

Times and Time Zones

All times are in EDT time to prevent confusion due to time zone crossing. See the N213HP flight status page for this flight to view local times or setup timezone preferences in your user account.

Time Position Orientation Groundspeed Altitude Reporting Facility
EDT Latitude Longitude Course Direction KTS MPH feet Rate Location/Type
Sat 04:29:33 PM 33.0367 -96.7117 57° Northeast 286 329 6,800  Level Fort Worth Center
Sat 04:30:35 PM 33.1197 -96.7183 356° North 303 349 10,200 2,274 Climbing Fort Worth Center
Sat 04:31:37 PM 33.2269 -96.7558 344° North 389 448 11,500 2,177 Climbing Fort Worth Center
Sat 04:32:39 PM 33.3314 -96.7919 344° North 394 453 14,700 3,629 Climbing Fort Worth Center
Sat 04:33:41 PM 33.4214 -96.8439 334° Northwest 353 406 19,000 4,016 Climbing Fort Worth Center
Sat 04:34:43 PM 33.5156 -96.8722 346° North 313 360 23,000 2,419 Climbing Fort Worth Center
Sat 04:35:45 PM 33.5931 -96.9233 331° Northwest 309 356 24,000 1,161 Climbing Fort Worth Center
Sat 04:36:47 PM 33.6764 -96.9933 325° Northwest 360 414 25,400 2,274 Climbing Fort Worth Center
Sat 04:37:49 PM 33.7500 -97.0678 320° Northwest 350 403 28,700 2,710 Climbing Fort Worth Center
Sat 04:38:51 PM 33.8225 -97.1181 330° Northwest 312 359 31,000 1,258 Climbing Fort Worth Center
Sat 04:39:53 PM 33.8947 -97.1842 323° Northwest 323 372 31,300 968 Climbing Fort Worth Center
Sat 04:40:55 PM 33.9878 -97.2686 323° Northwest 347 399 33,000 1,500 Climbing Fort Worth Center
Sat 04:41:57 PM 34.0731 -97.3294 329° Northwest 356 410 34,400 823 Climbing Fort Worth Center
Sat 04:42:59 PM 34.1486 -97.3914 326° Northwest 359 413 34,700 339 Climbing Fort Worth Center
Sat 04:44:01 PM 34.2492 -97.4850 322° Northwest 377 434 35,100 532 Climbing Fort Worth Center
Sat 04:45:03 PM 34.3344 -97.5706 320° Northwest 389 448 35,800 871 Climbing Fort Worth Center
Sat 04:46:05 PM 34.4308 -97.6378 330° Northwest 396 456 36,900 1,113 Climbing Fort Worth Center
Sat 04:47:07 PM 34.5261 -97.6978 333° Northwest 392 451 38,100 968 Climbing Fort Worth Center
Sat 04:48:09 PM 34.6097 -97.7769 322° Northwest 359 413 38,900 528 Climbing Fort Worth Center
Sat 04:49:12 PM 34.6789 -97.8469 320° Northwest 355 409 39,200 240 Climbing Fort Worth Center
Sat 04:50:14 PM 34.7600 -97.9203 323° Northwest 356 410 39,400 242 Climbing Fort Worth Center
Sat 04:51:16 PM 34.8619 -98.0067 325° Northwest 366 421 39,700 242 Climbing Fort Worth Center
Sat 04:52:18 PM 34.9586 -98.0658 333° Northwest 383 441 39,900 242 Climbing Fort Worth Center
Sat 04:53:20 PM 35.0461 -98.1386 326° Northwest 384 442 40,200 48 Climbing Fort Worth Center
Sat 04:54:22 PM 35.1336 -98.2153 324° Northwest 381 438 40,000 -97 Descending Fort Worth Center
Sat 04:55:24 PM 35.2189 -98.2978 322° Northwest 388 447 40,000  Level Fort Worth Center
Sat 04:56:26 PM 35.3075 -98.3814 322° Northwest 397 457 40,000  Level Fort Worth Center
Sat 04:57:28 PM 35.4192 -98.4747 326° Northwest 402 463 40,000  Level Fort Worth Center
Sat 04:58:31 PM 35.5153 -98.5467 329° Northwest 412 474 40,000  Level Fort Worth Center
Sat 04:59:33 PM 35.6056 -98.6322 322° Northwest 412 474 40,000  Level Fort Worth Center
Sat 05:00:03 PM 35.6408 -98.6669 321° Northwest 412 474 40,000  Level Kansas City Center
Sat 05:01:07 PM 35.7514 -98.7728 322° Northwest 412 474 40,000  Level Kansas City Center
Sat 05:02:07 PM 35.8475 -98.8522 326° Northwest 412 474 40,000  Level Kansas City Center
Sat 05:03:11 PM 35.9467 -98.9272 329° Northwest 413 475 40,000 -48 Level Kansas City Center
Sat 05:04:12 PM 36.0389 -99.0114 324° Northwest 413 475 39,900  Descending Kansas City Center
Sat 05:05:15 PM 36.1325 -99.0969 324° Northwest 414 476 40,000 48 Climbing Kansas City Center
Sat 05:06:16 PM 36.2269 -99.1822 324° Northwest 415 478 40,000  Level Kansas City Center
Sat 05:07:17 PM 36.3300 -99.2769 323° Northwest 418 481 40,000  Level Kansas City Center
Sat 05:08:20 PM 36.4225 -99.3642 323° Northwest 418 481 40,000  Level Kansas City Center
Sat 05:09:23 PM 36.5192 -99.4467 326° Northwest 419 482 40,000 -49 Level Kansas City Center
Sat 05:10:23 PM 36.6422 -99.5350 330° Northwest 423 487 39,900  Descending Kansas City Center
Sat 05:11:27 PM 36.7414 -99.6167 327° Northwest 424 488 40,000 48 Climbing Kansas City Center
Sat 05:12:27 PM 36.8283 -99.7136 318° Northwest 422 486 40,000  Level Kansas City Center
Sat 05:13:32 PM 36.9172 -99.8114 319° Northwest 422 486 40,000  Level Kansas City Center
Sat 05:14:32 PM 37.0103 -99.9008 323° Northwest 423 487 40,000  Level Kansas City Center
Sat 05:15:34 PM 37.1150 -99.9975 324° Northwest 422 486 40,000  Level Kansas City Center
Sat 05:16:37 PM 37.2172 -100.0619 333° Northwest 424 488 40,000  Level Kansas City Center
Sat 05:17:38 PM 37.3278 -100.1478 328° Northwest 423 487 40,000  Level Kansas City Center
Sat 05:18:42 PM 37.4144 -100.2331 322° Northwest 417 480 40,000  Level Kansas City Center
Sat 05:19:42 PM 37.5131 -100.3386 320° Northwest 417 480 40,000  Level Kansas City Center
Sat 05:20:45 PM 37.6008 -100.4256 322° Northwest 418 481 40,000  Level Kansas City Center
Sat 05:21:46 PM 37.6958 -100.5117 324° Northwest 418 481 40,000  Level Kansas City Center
Sat 05:22:50 PM 37.7972 -100.6039 324° Northwest 422 486 40,000  Level Kansas City Center
Sat 05:23:51 PM 37.8928 -100.7092 319° Northwest 417 480 40,000  Level Kansas City Center
Sat 05:24:52 PM 37.9250 -100.8569 285° West 394 453 40,000  Level Kansas City Center
Sat 05:25:56 PM 37.9572 -100.9817 288° West 393 452 40,000  Level Kansas City Center
Sat 05:26:56 PM 37.9778 -101.1339 280° West 394 453 40,000  Level Kansas City Center
Sat 05:28:01 PM 37.9908 -101.2642 277° West 394 453 40,000  Level Kansas City Center
Sat 05:29:01 PM 38.0044 -101.4178 276° West 393 452 40,000  Level Kansas City Center
Sat 05:30:05 PM 38.0136 -101.5494 275° West 394 453 40,000  Level Kansas City Center
Sat 05:31:06 PM 38.0289 -101.7039 277° West 394 453 40,000  Level Kansas City Center
Sat 05:32:07 PM 38.0417 -101.8358 277° West 395 455 40,000  Level Kansas City Center
Sat 05:33:11 PM 38.0586 -101.9922 278° West 399 459 40,000  Level Kansas City Center
Sat 05:34:12 PM 38.0772 -102.1253 280° West 399 459 40,000  Level Kansas City Center
Sat 05:35:13 PM 38.0936 -102.2581 279° West 399 459 40,000  Level Kansas City Center
Sat 05:36:17 PM 38.1078 -102.4147 277° West 399 459 40,000  Level Kansas City Center
Sat 05:37:31 PM 38.1225 -102.5950 276° West 401 461 40,000  Level Denver Center
Sat 05:38:32 PM 38.1394 -102.7289 279° West 401 461 40,000  Level Denver Center
Sat 05:39:34 PM 38.1547 -102.8861 277° West 401 461 40,000  Level Denver Center
Sat 05:40:36 PM 38.1681 -103.0194 277° West 401 461 40,000  Level Denver Center
Sat 05:41:38 PM 38.1814 -103.1650 277° West 401 461 40,000  Level Denver Center
Sat 05:42:40 PM 38.1950 -103.3219 276° West 401 461 40,000  Level Denver Center
Sat 05:43:41 PM 38.2075 -103.4586 277° West 404 465 40,000  Level Denver Center
Sat 05:44:43 PM 38.2217 -103.6175 277° West 406 467 40,000 -194 Level Denver Center
Sat 05:45:45 PM 38.2339 -103.7575 276° West 416 479 39,600 -581 Descending Denver Center
Sat 05:46:47 PM 38.2450 -103.9253 275° West 424 488 38,800 -629 Descending Denver Center
Sat 05:47:49 PM 38.2597 -104.0728 277° West 436 502 38,300 -585 Descending Denver Center
Sat 05:48:50 PM 38.2814 -104.2431 279° West 437 503 37,600 -634 Descending Denver Center
Sat 05:49:52 PM 38.2950 -104.3897 277° West 437 503 37,000 -629 Descending Denver Center
Sat 05:50:54 PM 38.2997 -104.5381 272° West 437 503 36,300 -677 Descending Denver Center
Sat 05:51:56 PM 38.3097 -104.7128 274° West 441 507 35,600 -629 Descending Denver Center
Sat 05:52:58 PM 38.3256 -104.8650 278° West 451 519 35,000 -732 Descending Denver Center
Sat 05:53:59 PM 38.3417 -105.0425 277° West 452 520 34,100 -1,024 Descending Denver Center
Sat 05:55:01 PM 38.3461 -105.1953 272° West 454 522 32,900 -1,355 Descending Denver Center
Sat 05:56:03 PM 38.3517 -105.3508 273° West 447 514 31,300 -1,548 Descending Denver Center
Sat 05:57:05 PM 38.3656 -105.4947 277° West 415 478 29,700 -1,548 Descending Denver Center
Sat 05:58:07 PM 38.3872 -105.6558 280° West 391 450 28,100 -1,210 Descending Denver Center
Sat 05:59:09 PM 38.3981 -105.7906 276° West 385 443 27,200 -919 Descending Denver Center
Sat 06:00:11 PM 38.4078 -105.9375 275° West 385 443 26,200 -878 Descending Denver Center
Sat 06:01:12 PM 38.4444 -106.0575 291° West 414 476 25,400 -829 Descending Denver Center
Sat 06:02:14 PM 38.5539 -106.0628 358° North 434 499 24,500 -677 Descending Denver Center
Sat 06:03:16 PM 38.6869 -106.0311 11° North 442 509 24,000 -242 Descending Denver Center
Sat 06:04:18 PM 38.7950 -106.0533 351° North 417 480 24,000  Level Denver Center
Sat 06:05:20 PM 38.9203 -106.0719 353° North 406 467 24,000  Level Denver Center
Sat 06:06:22 PM 39.0311 -106.0867 354° North 403 464 24,000 48 Level Denver Center
Sat 06:07:24 PM 39.1428 -106.1069 352° North 403 464 24,100  Climbing Denver Center
Sat 06:08:38 PM 39.2547 -106.1256 353° North 403 464 24,000 -44 Descending Denver Center
Sat 06:09:40 PM 39.3878 -106.1469 353° North 403 464 24,000 -387 Level Denver Center
Sat 06:10:42 PM 39.5036 -106.1650 353° North 387 445 23,200 -794 Descending Denver Center
Sat 06:11:56 PM 39.6286 -106.1900 351° North 383 441 22,200 -529 Descending Denver Center
Sat 06:12:58 PM 39.7406 -106.2111 352° North 369 425 22,000 -97 Descending Denver Center
Sat 06:14:00 PM 39.8358 -106.2314 351° North 353 406 22,000  Level Denver Center
Sat 06:15:02 PM 39.9308 -106.2494 352° North 350 403 22,000 -1,113 Level Denver Center
Sat 06:16:04 PM 40.0169 -106.2686 350° North 299 344 19,700 -2,177 Descending Denver Center
Sat 06:17:06 PM 40.1003 -106.2836 352° North 299 344 17,500 -2,032 Descending Denver Center
Sat 06:18:08 PM 40.1156 -106.3794 282° West 300 345 15,500 -1,659 Descending Denver Center
Sat 06:19:09 PM 40.0436 -106.4289 208° Southwest 296 341 14,100 -780 Descending Denver Center
Sat 06:20:11 PM 39.9758 -106.4528 195° South 269 310 13,900 -145 Descending Denver Center
Sat 06:21:13 PM 39.9169 -106.4733 195° South 240 276 13,800  Descending Denver Center
Sat 06:22:15 PM 39.8564 -106.5028 200° South 233 268 13,900 -97 Climbing Denver Center
Sat 06:23:17 PM 39.7839 -106.5314 197° South 229 264 13,600 -484 Descending Denver Center
Sat 06:24:19 PM 39.7344 -106.5542 200° South 223 257 12,900 -585 Descending Denver Center
Sat 06:25:20 PM 39.6875 -106.6050 220° Southwest 202 232 12,400 -976 Descending Denver Center
Sat 06:26:22 PM 39.6800 -106.6728 262° West 192 221 10,900 -1,306 Descending Denver Center
Sat 06:27:24 PM 39.6692 -106.7392 258° West 192 221 9,700 -1,210 Descending Denver Center
Sat 06:28:26 PM 39.6589 -106.8014 258° West 182 209 8,400 -1,210 Descending Denver Center
Sat 06:29:28 PM 39.6486 -106.8606 257° West 174 200 7,200 -1,161 Descending Denver Center

Login

Don't have an account? Register now (free) for customized features, flight alerts, and more!